sensor_id;sensor_type;location;lat;lon;timestamp;pressure;altitude;pressure_sealevel;temperature;humidity
58975;BME280;44751;52.236;5.178;2023-02-15T00:01:05;102782.13;;;0.83;100.00
58975;BME280;44751;52.236;5.178;2023-02-15T00:03:32;102781.22;;;0.84;100.00
58975;BME280;44751;52.236;5.178;2023-02-15T00:06:02;102779.09;;;0.92;100.00
58975;BME280;44751;52.236;5.178;2023-02-15T00:08:30;102785.47;;;0.88;100.00
58975;BME280;44751;52.236;5.178;2023-02-15T00:11:08;102781.88;;;0.89;100.00
58975;BME280;44751;52.236;5.178;2023-02-15T00:13:39;102785.41;;;0.89;100.00
58975;BME280;44751;52.236;5.178;2023-02-15T00:16:11;102781.41;;;0.79;100.00
58975;BME280;44751;52.236;5.178;2023-02-15T00:18:39;102784.19;;;0.76;100.00
58975;BME280;44751;52.236;5.178;2023-02-15T00:21:09;102789.50;;;0.76;100.00
58975;BME280;44751;52.236;5.178;2023-02-15T00:23:39;102779.03;;;0.73;100.00
58975;BME280;44751;52.236;5.178;2023-02-15T00:26:11;102771.84;;;0.75;100.00
58975;BME280;44751;52.236;5.178;2023-02-15T00:28:41;102763.16;;;0.71;100.00
58975;BME280;44751;52.236;5.178;2023-02-15T00:31:10;102758.28;;;0.60;100.00
58975;BME280;44751;52.236;5.178;2023-02-15T00:33:44;102757.09;;;0.68;100.00
58975;BME280;44751;52.236;5.178;2023-02-15T00:36:11;102746.81;;;0.60;100.00
58975;BME280;44751;52.236;5.178;2023-02-15T00:38:40;102757.69;;;0.54;100.00
58975;BME280;44751;52.236;5.178;2023-02-15T00:41:12;102757.50;;;0.58;100.00
58975;BME280;44751;52.236;5.178;2023-02-15T00:43:38;102749.94;;;0.49;100.00
58975;BME280;44751;52.236;5.178;2023-02-15T00:46:05;102748.19;;;0.48;100.00
58975;BME280;44751;52.236;5.178;2023-02-15T00:48:32;102747.66;;;0.40;100.00
58975;BME280;44751;52.236;5.178;2023-02-15T00:51:00;102752.06;;;0.41;100.00
58975;BME280;44751;52.236;5.178;2023-02-15T00:53:29;102748.47;;;0.42;100.00
58975;BME280;44751;52.236;5.178;2023-02-15T00:55:56;102746.75;;;0.41;100.00
58975;BME280;44751;52.236;5.178;2023-02-15T00:58:24;102751.19;;;0.40;100.00
58975;BME280;44751;52.236;5.178;2023-02-15T01:00:51;102748.78;;;0.34;100.00
58975;BME280;44751;52.236;5.178;2023-02-15T01:03:21;102739.16;;;0.31;100.00
58975;BME280;44751;52.236;5.178;2023-02-15T01:05:52;102749.47;;;0.39;100.00
58975;BME280;44751;52.236;5.178;2023-02-15T01:08:20;102741.63;;;0.36;100.00
58975;BME280;44751;52.236;5.178;2023-02-15T01:10:51;102740.88;;;0.32;100.00
58975;BME280;44751;52.236;5.178;2023-02-15T01:13:31;102727.81;;;0.28;100.00
58975;BME280;44751;52.236;5.178;2023-02-15T01:15:58;102727.88;;;0.26;100.00
58975;BME280;44751;52.236;5.178;2023-02-15T01:18:32;102735.31;;;0.38;100.00
58975;BME280;44751;52.236;5.178;2023-02-15T01:21:25;102729.34;;;0.33;100.00
58975;BME280;44751;52.236;5.178;2023-02-15T01:23:57;102723.28;;;0.30;100.00
58975;BME280;44751;52.236;5.178;2023-02-15T01:26:35;102719.84;;;0.28;100.00
58975;BME280;44751;52.236;5.178;2023-02-15T01:29:03;102715.78;;;0.19;100.00
58975;BME280;44751;52.236;5.178;2023-02-15T01:31:37;102716.19;;;0.30;100.00
58975;BME280;44751;52.236;5.178;2023-02-15T01:34:04;102711.69;;;0.32;100.00
58975;BME280;44751;52.236;5.178;2023-02-15T01:36:33;102709.03;;;0.32;100.00
58975;BME280;44751;52.236;5.178;2023-02-15T01:39:01;102702.69;;;0.14;100.00
58975;BME280;44751;52.236;5.178;2023-02-15T01:41:35;102702.56;;;0.17;100.00
58975;BME280;44751;52.236;5.178;2023-02-15T01:44:03;102707.03;;;0.17;100.00
58975;BME280;44751;52.236;5.178;2023-02-15T01:46:50;102707.16;;;0.14;100.00
58975;BME280;44751;52.236;5.178;2023-02-15T01:49:21;102690.75;;;0.04;100.00
58975;BME280;44751;52.236;5.178;2023-02-15T01:51:57;102697.53;;;0.11;100.00
58975;BME280;44751;52.236;5.178;2023-02-15T01:54:34;102698.44;;;0.10;100.00
58975;BME280;44751;52.236;5.178;2023-02-15T01:57:05;102696.00;;;0.05;100.00
58975;BME280;44751;52.236;5.178;2023-02-15T01:59:38;102689.06;;;0.23;100.00
58975;BME280;44751;52.236;5.178;2023-02-15T02:02:09;102693.31;;;0.28;100.00
58975;BME280;44751;52.236;5.178;2023-02-15T02:04:43;102683.16;;;0.17;100.00
58975;BME280;44751;52.236;5.178;2023-02-15T02:07:23;102688.31;;;0.20;100.00
58975;BME280;44751;52.236;5.178;2023-02-15T02:09:51;102680.88;;;0.07;100.00
58975;BME280;44751;52.236;5.178;2023-02-15T02:12:19;102676.38;;;0.09;100.00
58975;BME280;44751;52.236;5.178;2023-02-15T02:14:50;102676.31;;;0.11;100.00
58975;BME280;44751;52.236;5.178;2023-02-15T02:23:22;102671.00;;;0.11;100.00
58975;BME280;44751;52.236;5.178;2023-02-15T02:35:23;102651.84;;;-0.18;100.00
58975;BME280;44751;52.236;5.178;2023-02-15T02:40:52;102661.50;;;-0.16;100.00
58975;BME280;44751;52.236;5.178;2023-02-15T02:43:47;102653.47;;;-0.14;100.00
58975;BME280;44751;52.236;5.178;2023-02-15T02:46:28;102644.16;;;-0.24;100.00
58975;BME280;44751;52.236;5.178;2023-02-15T02:49:01;102647.75;;;-0.25;100.00
58975;BME280;44751;52.236;5.178;2023-02-15T02:51:30;102652.78;;;-0.19;100.00
58975;BME280;44751;52.236;5.178;2023-02-15T02:54:04;102643.56;;;-0.31;100.00
58975;BME280;44751;52.236;5.178;2023-02-15T02:56:41;102646.25;;;-0.33;100.00
58975;BME280;44751;52.236;5.178;2023-02-15T02:59:14;102640.19;;;-0.36;100.00
58975;BME280;44751;52.236;5.178;2023-02-15T03:01:57;102636.75;;;-0.38;100.00
58975;BME280;44751;52.236;5.178;2023-02-15T03:04:38;102624.28;;;-0.36;100.00
58975;BME280;44751;52.236;5.178;2023-02-15T03:07:18;102625.66;;;-0.26;100.00
58975;BME280;44751;52.236;5.178;2023-02-15T03:10:08;102624.47;;;-0.19;100.00
58975;BME280;44751;52.236;5.178;2023-02-15T03:12:40;102619.22;;;0.01;100.00
58975;BME280;44751;52.236;5.178;2023-02-15T03:15:20;102608.22;;;-0.11;100.00
58975;BME280;44751;52.236;5.178;2023-02-15T03:17:56;102613.91;;;-0.20;100.00
58975;BME280;44751;52.236;5.178;2023-02-15T03:20:38;102610.78;;;-0.30;100.00
58975;BME280;44751;52.236;5.178;2023-02-15T03:23:12;102607.41;;;-0.34;100.00
58975;BME280;44751;52.236;5.178;2023-02-15T03:25:57;102607.94;;;-0.25;100.00
58975;BME280;44751;52.236;5.178;2023-02-15T03:28:30;102614.25;;;-0.28;100.00
58975;BME280;44751;52.236;5.178;2023-02-15T03:31:07;102599.88;;;-0.45;100.00
58975;BME280;44751;52.236;5.178;2023-02-15T03:33:40;102603.53;;;-0.47;100.00
58975;BME280;44751;52.236;5.178;2023-02-15T03:36:17;102600.03;;;-0.48;100.00
58975;BME280;44751;52.236;5.178;2023-02-15T03:41:50;102593.25;;;-0.55;100.00
58975;BME280;44751;52.236;5.178;2023-02-15T03:44:30;102606.06;;;-0.44;100.00
58975;BME280;44751;52.236;5.178;2023-02-15T03:47:13;102591.91;;;-0.45;100.00
58975;BME280;44751;52.236;5.178;2023-02-15T03:49:54;102591.75;;;-0.40;100.00
58975;BME280;44751;52.236;5.178;2023-02-15T03:52:29;102585.56;;;-0.41;100.00
58975;BME280;44751;52.236;5.178;2023-02-15T03:54:59;102584.59;;;-0.38;100.00
58975;BME280;44751;52.236;5.178;2023-02-15T03:57:28;102589.69;;;-0.33;100.00
58975;BME280;44751;52.236;5.178;2023-02-15T04:05:40;102586.44;;;-0.40;100.00
58975;BME280;44751;52.236;5.178;2023-02-15T04:08:09;102571.47;;;-0.41;100.00
58975;BME280;44751;52.236;5.178;2023-02-15T04:10:37;102573.72;;;-0.32;100.00
58975;BME280;44751;52.236;5.178;2023-02-15T04:13:22;102576.81;;;-0.43;100.00
58975;BME280;44751;52.236;5.178;2023-02-15T04:16:03;102574.13;;;-0.41;100.00
58975;BME280;44751;52.236;5.178;2023-02-15T04:18:42;102576.56;;;-0.36;100.00
58975;BME280;44751;52.236;5.178;2023-02-15T04:21:30;102574.94;;;-0.41;100.00
58975;BME280;44751;52.236;5.178;2023-02-15T04:24:15;102568.34;;;-0.30;100.00
58975;BME280;44751;52.236;5.178;2023-02-15T04:27:02;102564.38;;;-0.20;100.00
58975;BME280;44751;52.236;5.178;2023-02-15T04:29:45;102567.75;;;-0.16;100.00
58975;BME280;44751;52.236;5.178;2023-02-15T04:32:15;102568.16;;;-0.25;100.00
58975;BME280;44751;52.236;5.178;2023-02-15T04:34:47;102551.97;;;-0.19;100.00
58975;BME280;44751;52.236;5.178;2023-02-15T04:37:18;102555.22;;;-0.13;100.00
58975;BME280;44751;52.236;5.178;2023-02-15T04:39:46;102554.91;;;-0.05;100.00
58975;BME280;44751;52.236;5.178;2023-02-15T04:42:35;102548.84;;;-0.08;100.00
58975;BME280;44751;52.236;5.178;2023-02-15T04:45:03;102557.97;;;-0.14;100.00
58975;BME280;44751;52.236;5.178;2023-02-15T04:47:34;102546.06;;;-0.26;100.00
58975;BME280;44751;52.236;5.178;2023-02-15T04:50:12;102546.19;;;-0.29;100.00
58975;BME280;44751;52.236;5.178;2023-02-15T04:52:44;102544.53;;;-0.32;100.00
58975;BME280;44751;52.236;5.178;2023-02-15T04:55:33;102545.53;;;-0.34;100.00
58975;BME280;44751;52.236;5.178;2023-02-15T04:58:20;102543.81;;;-0.35;100.00
58975;BME280;44751;52.236;5.178;2023-02-15T05:00:55;102542.53;;;-0.27;100.00
58975;BME280;44751;52.236;5.178;2023-02-15T05:03:26;102541.34;;;-0.40;100.00
58975;BME280;44751;52.236;5.178;2023-02-15T05:06:07;102547.53;;;-0.40;100.00
58975;BME280;44751;52.236;5.178;2023-02-15T05:08:35;102550.31;;;-0.43;100.00
58975;BME280;44751;52.236;5.178;2023-02-15T05:11:05;102555.66;;;-0.44;100.00
58975;BME280;44751;52.236;5.178;2023-02-15T05:13:40;102554.13;;;-0.50;100.00
58975;BME280;44751;52.236;5.178;2023-02-15T05:16:07;102554.75;;;-0.43;100.00
58975;BME280;44751;52.236;5.178;2023-02-15T05:18:48;102557.19;;;-0.59;100.00
58975;BME280;44751;52.236;5.178;2023-02-15T05:21:19;102541.34;;;-0.61;100.00
58975;BME280;44751;52.236;5.178;2023-02-15T05:23:46;102543.38;;;-0.68;100.00
58975;BME280;44751;52.236;5.178;2023-02-15T05:26:17;102546.03;;;-0.68;100.00
58975;BME280;44751;52.236;5.178;2023-02-15T05:29:02;102547.50;;;-0.60;100.00
58975;BME280;44751;52.236;5.178;2023-02-15T05:31:31;102537.56;;;-0.34;100.00
58975;BME280;44751;52.236;5.178;2023-02-15T05:34:12;102538.09;;;-0.26;100.00
58975;BME280;44751;52.236;5.178;2023-02-15T05:36:42;102524.06;;;-0.28;100.00
58975;BME280;44751;52.236;5.178;2023-02-15T05:39:10;102528.44;;;-0.27;100.00
58975;BME280;44751;52.236;5.178;2023-02-15T05:41:37;102528.16;;;-0.42;100.00
58975;BME280;44751;52.236;5.178;2023-02-15T05:44:07;102539.41;;;-0.36;100.00
58975;BME280;44751;52.236;5.178;2023-02-15T05:46:36;102526.97;;;-0.34;100.00
58975;BME280;44751;52.236;5.178;2023-02-15T05:49:08;102528.09;;;-0.40;100.00
58975;BME280;44751;52.236;5.178;2023-02-15T05:51:50;102530.09;;;-0.45;100.00
58975;BME280;44751;52.236;5.178;2023-02-15T05:54:17;102531.28;;;-0.32;100.00
58975;BME280;44751;52.236;5.178;2023-02-15T05:56:47;102532.88;;;-0.28;100.00
58975;BME280;44751;52.236;5.178;2023-02-15T05:59:52;102539.03;;;-0.27;100.00
58975;BME280;44751;52.236;5.178;2023-02-15T15:07:08;102240.91;;;9.93;100.00
58975;BME280;44751;52.236;5.178;2023-02-15T15:12:45;102232.09;;;9.71;100.00
58975;BME280;44751;52.236;5.178;2023-02-15T15:15:32;102238.63;;;9.68;100.00
58975;BME280;44751;52.236;5.178;2023-02-15T15:18:08;102237.75;;;9.58;100.00
58975;BME280;44751;52.236;5.178;2023-02-15T15:26:31;102235.88;;;9.49;100.00
58975;BME280;44751;52.236;5.178;2023-02-15T15:29:12;102237.69;;;9.38;100.00
58975;BME280;44751;52.236;5.178;2023-02-15T15:31:55;102251.28;;;9.37;100.00
58975;BME280;44751;52.236;5.178;2023-02-15T16:32:29;102211.72;;;8.44;100.00
58975;BME280;44751;52.236;5.178;2023-02-15T16:35:13;102197.66;;;8.40;100.00
58975;BME280;44751;52.236;5.178;2023-02-15T16:37:41;102203.84;;;8.31;100.00
